Time;durP1;ratioP1;P1;durP2;ratioP2;P2;SDS_P1;SDS_P2;PMS_P1;PMS_P2;Temp;Humidity;BMP_temperature;BMP_pressure;BME280_temperature;BME280_humidity;BME280_pressure;Samples;Min_cycle;Max_cycle;Signal;HPM_P1;HPM_P2
2021/01/04 11:38:49;;;;;;;2.10;1.00;;;21.20;30.80;24.00;92992.00;;;;10517666;28;45589;-81
2021/01/04 11:43:51;;;;;;;2.50;1.05;;;22.20;32.70;25.80;93001.00;;;;10455913;28;76932;-81
2021/01/04 11:48:51;;;;;;;1.50;1.10;;;23.20;31.40;26.80;93000.00;;;;10457542;28;47559;-80
2021/01/04 11:53:52;;;;;;;2.08;1.15;;;23.90;30.40;27.50;92998.00;;;;10455888;28;47314;-79
2021/01/04 11:58:53;;;;;;;2.63;1.35;;;24.40;29.70;27.90;92997.00;;;;10456014;28;74382;-81
2021/01/04 12:03:55;;;;;;;1.58;1.13;;;24.90;29.20;28.10;92988.00;;;;10454336;28;74486;-79
2021/01/04 12:08:56;;;;;;;1.83;1.23;;;25.10;29.70;28.40;92973.00;;;;10454318;28;48193;-79
2021/01/04 12:13:57;;;;;;;2.10;1.27;;;25.30;28.60;28.50;92981.00;;;;10452006;28;46934;-79
2021/01/04 12:18:58;;;;;;;1.73;1.13;;;25.50;28.40;28.60;92970.00;;;;10451350;28;73082;-79
2021/01/04 12:23:58;;;;;;;2.13;1.30;;;25.60;28.30;28.70;92972.00;;;;10451815;28;75363;-79
2021/01/04 12:28:59;;;;;;;2.45;1.08;;;25.70;28.20;28.80;92967.00;;;;10451234;28;74680;-81
2021/01/04 12:34:00;;;;;;;2.70;1.23;;;25.80;28.10;28.80;92956.00;;;;10453095;28;47302;-79
2021/01/04 12:39:00;;;;;;;1.90;1.30;;;25.80;28.10;28.80;92951.00;;;;10451427;28;74165;-79
2021/01/04 12:44:01;;;;;;;2.10;1.10;;;25.90;28.10;28.80;92942.00;;;;10454150;28;47057;-79
2021/01/04 12:49:02;;;;;;;2.08;1.10;;;25.90;28.10;28.80;92957.00;;;;10427517;28;75398;-80
2021/01/04 12:54:03;;;;;;;2.10;1.20;;;25.90;28.20;28.90;92944.00;;;;10430118;28;75414;-78
2021/01/04 12:59:06;;;;;;;2.13;1.20;;;25.90;28.70;28.80;92949.00;;;;10457064;28;48392;-78
2021/01/04 13:04:08;;;;;;;1.70;1.10;;;25.90;28.10;28.80;92942.00;;;;10458444;28;47153;-79
2021/01/04 13:09:09;;;;;;;1.73;1.10;;;26.00;28.50;28.90;92955.00;;;;10452800;28;74320;-78
2021/01/04 13:14:10;;;;;;;1.55;1.20;;;26.00;28.40;28.90;92949.00;;;;10444829;28;74036;-80
2021/01/04 13:19:11;;;;;;;1.70;1.17;;;26.00;28.60;28.80;92952.00;;;;10432244;28;45548;-82
2021/01/04 13:24:14;;;;;;;2.45;1.65;;;26.00;28.50;29.00;92942.00;;;;10431186;28;45314;-80
2021/01/04 13:29:45;;;;;;;1.30;1.10;;;26.10;31.00;29.10;92933.00;;;;10434647;28;47599;-81
2021/01/04 13:34:47;;;;;;;4.18;1.20;;;26.20;28.40;29.10;92948.00;;;;10453289;28;45463;-83
2021/01/04 13:39:48;;;;;;;1.98;1.13;;;26.20;28.10;29.00;92946.00;;;;10432724;28;47548;-83
2021/01/04 13:44:48;;;;;;;2.05;1.10;;;26.20;28.30;29.00;92948.00;;;;10433641;28;48199;-83
2021/01/04 13:49:49;;;;;;;2.72;1.02;;;26.10;28.30;29.00;92943.00;;;;10434909;28;47349;-83
2021/01/04 13:54:50;;;;;;;2.30;1.20;;;26.10;28.30;29.00;92932.00;;;;10433471;28;62107;-81
2021/01/04 13:59:51;;;;;;;2.03;1.33;;;26.10;28.30;29.00;92945.00;;;;10428170;28;47116;-83
2021/01/04 14:04:51;;;;;;;1.90;1.25;;;26.10;28.00;29.00;92948.00;;;;10422211;28;47135;-82
2021/01/04 14:09:52;;;;;;;2.45;1.20;;;26.10;27.40;28.90;92941.00;;;;10424991;28;47271;-82
2021/01/04 14:14:53;;;;;;;2.10;1.20;;;26.00;27.00;28.90;92951.00;;;;10420040;28;48091;-83
2021/01/04 14:19:54;;;;;;;2.55;1.23;;;26.00;26.70;28.90;92952.00;;;;10423573;28;74474;-82
2021/01/04 14:24:54;;;;;;;2.22;1.30;;;26.00;26.50;28.90;92965.00;;;;10423707;28;52008;-81
2021/01/04 14:29:55;;;;;;;1.77;1.30;;;25.90;25.90;28.80;92956.00;;;;10398259;28;59309;-82
2021/01/04 14:34:56;;;;;;;1.95;1.30;;;25.90;25.60;28.80;92950.00;;;;10397281;28;59961;-81
2021/01/04 14:39:57;;;;;;;2.05;1.30;;;25.90;25.50;28.80;92962.00;;;;10401866;28;46980;-82
2021/01/04 14:44:57;;;;;;;2.70;1.40;;;25.90;25.50;28.80;92964.00;;;;10421320;28;47059;-81
2021/01/04 14:49:58;;;;;;;1.90;1.40;;;25.90;25.20;28.70;92962.00;;;;10422315;28;75715;-82
2021/01/04 14:55:00;;;;;;;2.28;1.40;;;25.90;24.80;28.70;92966.00;;;;10423087;28;47952;-82
2021/01/04 15:00:00;;;;;;;2.35;1.58;;;25.90;24.50;28.70;92956.00;;;;10439003;28;48310;-83
2021/01/04 15:05:01;;;;;;;1.98;1.48;;;25.80;24.10;28.80;92967.00;;;;10424401;28;63724;-84
2021/01/04 15:10:12;;;;;;;2.88;1.50;;;25.80;24.40;28.80;92956.00;;;;10421458;28;61936;-82
2021/01/04 15:15:13;;;;;;;2.30;1.42;;;25.90;24.50;28.80;92964.00;;;;10398757;28;63449;-82
2021/01/04 15:20:14;;;;;;;2.20;1.27;;;25.90;24.70;28.90;92965.00;;;;10419996;28;48414;-85
2021/01/04 15:25:15;;;;;;;2.20;1.70;;;26.00;25.00;29.00;92960.00;;;;10419901;28;47293;-83
2021/01/04 15:30:16;;;;;;;2.30;1.30;;;26.00;25.00;29.00;92957.00;;;;10418381;28;46898;-83
2021/01/04 15:35:17;;;;;;;1.70;1.25;;;26.10;25.00;29.10;92955.00;;;;10416466;28;49430;-85
2021/01/04 15:40:19;;;;;;;2.17;1.48;;;26.20;24.90;29.20;92970.00;;;;10417574;28;47046;-83
2021/01/04 15:45:20;;;;;;;1.60;1.48;;;26.20;24.80;29.20;92947.00;;;;10403137;28;48180;-82
2021/01/04 15:50:20;;;;;;;2.10;1.60;;;26.30;24.70;29.30;92947.00;;;;10420457;28;48052;-82
2021/01/04 15:55:21;;;;;;;1.85;1.20;;;26.30;24.60;29.40;92973.00;;;;10418660;28;47127;-81
2021/01/04 16:00:22;;;;;;;1.98;1.20;;;26.40;24.90;29.50;92965.00;;;;10417815;28;75559;-81
2021/01/04 16:05:23;;;;;;;1.45;1.02;;;26.50;24.80;29.60;92959.00;;;;10417130;28;47025;-83
2021/01/04 16:10:24;;;;;;;1.38;1.23;;;26.60;24.80;29.70;92960.00;;;;10416160;28;74780;-83
2021/01/04 16:15:25;;;;;;;1.38;0.98;;;26.70;24.80;29.70;92965.00;;;;10400923;28;74541;-81
2021/01/04 16:20:26;;;;;;;9.32;6.50;;;26.70;24.70;29.70;92965.00;;;;10394689;28;45343;-81
2021/01/04 16:25:27;;;;;;;6.57;4.63;;;26.80;24.60;29.70;92963.00;;;;10399256;28;45460;-80
2021/01/04 16:30:28;;;;;;;5.57;3.83;;;26.80;24.60;29.80;92947.00;;;;10381541;28;69874;-81
2021/01/04 16:35:30;;;;;;;4.78;3.33;;;26.80;24.50;29.80;92966.00;;;;10405685;28;45519;-80
2021/01/04 16:40:31;;;;;;;4.03;3.00;;;26.80;24.50;29.80;92967.00;;;;10424683;28;47226;-83
2021/01/04 16:45:32;;;;;;;4.68;3.03;;;26.90;24.50;29.90;92965.00;;;;10425422;28;74499;-82
2021/01/04 16:50:32;;;;;;;3.92;2.83;;;26.90;24.60;29.90;92973.00;;;;10450687;28;74495;-77
2021/01/04 16:55:33;;;;;;;4.07;2.50;;;27.00;25.20;30.00;92963.00;;;;10453148;28;47193;-77
2021/01/04 17:00:34;;;;;;;3.30;2.58;;;27.00;25.20;30.00;92959.00;;;;10449360;28;74237;-80
2021/01/04 17:05:34;;;;;;;3.55;2.28;;;27.10;25.20;30.00;92945.00;;;;10422172;28;66674;-79
2021/01/04 17:10:35;;;;;;;2.70;2.35;;;27.10;25.10;30.00;92948.00;;;;10422067;28;75107;-80
2021/01/04 17:15:36;;;;;;;3.47;2.17;;;27.10;25.10;30.00;92959.00;;;;10422381;28;61944;-79
2021/01/04 17:20:36;;;;;;;2.47;2.17;;;27.10;25.00;30.00;92962.00;;;;10421555;28;74786;-79
2021/01/04 17:25:37;;;;;;;2.25;1.88;;;27.10;24.90;30.10;92958.00;;;;10424366;28;47168;-79
2021/01/04 17:30:38;;;;;;;2.90;1.90;;;27.10;24.80;30.00;92953.00;;;;10422066;28;74524;-79
2021/01/04 17:35:38;;;;;;;4.05;2.10;;;27.10;24.90;30.00;92965.00;;;;10423891;28;75124;-79
2021/01/04 17:40:39;;;;;;;2.90;2.30;;;27.10;24.80;30.00;92970.00;;;;10423406;28;46955;-77
2021/01/04 17:45:40;;;;;;;3.30;2.15;;;27.10;24.70;30.00;92963.00;;;;10423170;28;75401;-78
2021/01/04 17:50:40;;;;;;;2.97;2.30;;;27.10;24.60;30.00;92972.00;;;;10424214;28;45372;-78
